createdAt,value
2019-02-21T00:00:54.802Z,75.14
2019-02-21T00:03:29.451Z,75.36
2019-02-21T00:06:01.293Z,75.20
2019-02-21T00:08:32.838Z,75.38
2019-02-21T00:11:06.998Z,75.35
2019-02-21T00:13:38.849Z,75.21
2019-02-21T00:16:11.872Z,74.94
2019-02-21T00:18:43.777Z,75.15
2019-02-21T00:21:15.334Z,75.36
2019-02-21T00:23:47.311Z,75.51
2019-02-21T00:26:19.174Z,75.45
2019-02-21T00:28:50.727Z,75.63
2019-02-21T00:31:22.650Z,75.68
2019-02-21T00:33:54.429Z,75.60
2019-02-21T00:36:26.005Z,75.66
2019-02-21T00:38:57.850Z,75.62
2019-02-21T00:41:29.719Z,75.73
2019-02-21T00:44:02.540Z,75.69
2019-02-21T00:46:34.271Z,75.55
2019-02-21T00:49:06.091Z,75.46
2019-02-21T00:51:40.693Z,75.90
2019-02-21T00:54:12.256Z,75.98
2019-02-21T00:56:43.827Z,75.98
2019-02-21T00:59:15.671Z,75.06
2019-02-21T01:01:47.529Z,75.28
2019-02-21T01:04:19.070Z,75.57
2019-02-21T01:06:50.637Z,75.58
2019-02-21T01:09:22.459Z,75.85
2019-02-21T01:11:54.336Z,75.64
2019-02-21T01:14:26.180Z,76.08
2019-02-21T01:16:58.024Z,76.18
2019-02-21T01:19:30.907Z,76.20
2019-02-21T01:22:03.232Z,75.92
2019-02-21T01:24:35.088Z,75.57
2019-02-21T01:27:08.481Z,75.44
2019-02-21T01:29:40.331Z,75.62
2019-02-21T01:32:12.271Z,75.79
2019-02-21T01:34:44.164Z,75.86
2019-02-21T01:37:16.044Z,75.75
2019-02-21T01:39:47.671Z,76.05
2019-02-21T01:42:19.518Z,75.97
2019-02-21T01:44:51.341Z,75.86
2019-02-21T01:47:23.196Z,75.70
2019-02-21T01:49:55.020Z,75.78
2019-02-21T01:52:26.869Z,75.62
2019-02-21T01:54:58.699Z,75.98
2019-02-21T01:57:30.555Z,76.15
2019-02-21T02:00:02.378Z,76.36
2019-02-21T02:02:34.636Z,76.49
2019-02-21T02:05:10.429Z,76.37
2019-02-21T02:07:42.301Z,76.20
2019-02-21T02:10:17.124Z,76.12
2019-02-21T02:12:49.053Z,76.35
2019-02-21T02:15:20.915Z,76.47
2019-02-21T02:17:55.142Z,76.56
2019-02-21T02:20:27.049Z,76.43
2019-02-21T02:23:00.154Z,76.44
2019-02-21T02:25:32.069Z,76.38
2019-02-21T02:28:03.885Z,76.23
2019-02-21T02:30:36.942Z,76.48
2019-02-21T02:33:08.757Z,76.63
2019-02-21T02:35:40.623Z,76.79
2019-02-21T02:38:12.469Z,76.97
2019-02-21T02:40:44.323Z,77.08
2019-02-21T02:43:18.308Z,77.18
2019-02-21T02:45:50.157Z,77.22
2019-02-21T02:48:22.012Z,77.21
2019-02-21T02:50:53.871Z,76.88
2019-02-21T02:53:25.735Z,76.82
2019-02-21T02:56:00.044Z,76.81
2019-02-21T02:58:31.622Z,76.81
2019-02-21T03:01:04.758Z,77.06
2019-02-21T03:03:36.607Z,76.96
2019-02-21T03:06:08.496Z,76.94
2019-02-21T03:08:40.539Z,77.13
2019-02-21T03:11:12.380Z,77.17
2019-02-21T03:13:43.960Z,77.28
2019-02-21T03:16:16.601Z,77.16
2019-02-21T03:18:48.465Z,77.30
2019-02-21T03:21:20.327Z,77.50
2019-02-21T03:23:52.176Z,77.51
2019-02-21T03:26:26.756Z,77.27
2019-02-21T03:28:58.668Z,77.26
2019-02-21T03:31:30.518Z,77.24
2019-02-21T03:34:02.426Z,77.41
2019-02-21T03:36:34.233Z,77.57
2019-02-21T03:39:09.297Z,77.55
2019-02-21T03:41:41.137Z,77.49
2019-02-21T03:44:13.001Z,77.57
2019-02-21T03:46:44.929Z,77.60
2019-02-21T03:49:16.814Z,77.75
2019-02-21T03:51:48.644Z,77.75
2019-02-21T03:54:20.523Z,77.15
2019-02-21T03:56:52.034Z,76.82
2019-02-21T03:59:23.899Z,76.87
2019-02-21T04:02:04.793Z,76.64
2019-02-21T04:04:29.788Z,76.97
2019-02-21T04:07:01.619Z,76.72
2019-02-21T04:09:33.461Z,77.08
2019-02-21T04:12:05.413Z,76.91
2019-02-21T04:14:37.319Z,76.76
2019-02-21T04:17:09.293Z,76.81
2019-02-21T04:19:41.135Z,76.79
2019-02-21T04:22:13.142Z,76.60
2019-02-21T04:24:44.978Z,76.58
2019-02-21T04:27:17.890Z,76.66
2019-02-21T04:29:49.752Z,76.59
2019-02-21T04:32:21.629Z,76.51
2019-02-21T04:34:53.448Z,76.71
2019-02-21T04:37:25.326Z,76.76
2019-02-21T04:39:57.172Z,76.67
2019-02-21T04:42:29.048Z,76.75
2019-02-21T04:45:00.885Z,76.88
2019-02-21T04:47:32.766Z,76.92
2019-02-21T04:50:05.802Z,76.84
2019-02-21T04:52:38.806Z,76.80
2019-02-21T04:55:10.654Z,76.56
2019-02-21T04:57:42.522Z,76.88
2019-02-21T05:00:15.526Z,77.08
2019-02-21T05:02:47.366Z,77.39
2019-02-21T05:05:19.201Z,77.30
2019-02-21T05:07:51.160Z,77.49
2019-02-21T05:10:24.200Z,77.50
2019-02-21T05:12:56.707Z,77.58
2019-02-21T05:15:28.535Z,77.79
2019-02-21T05:18:00.388Z,77.82
2019-02-21T05:20:32.307Z,77.93
2019-02-21T05:23:04.172Z,77.90
2019-02-21T05:25:35.990Z,77.80
2019-02-21T05:28:27.180Z,78.23
2019-02-21T05:31:26.981Z,78.00
2019-02-21T05:34:09.475Z,78.01
2019-02-21T05:37:02.992Z,77.57
2019-02-21T05:40:08.794Z,77.44
2019-02-21T05:43:02.241Z,77.59
2019-02-21T05:45:55.993Z,78.03
2019-02-21T05:48:45.314Z,78.00
2019-02-21T05:51:36.029Z,78.15
2019-02-21T05:54:38.949Z,77.92
2019-02-21T05:57:24.359Z,78.00
2019-02-21T06:00:16.348Z,77.77
2019-02-21T06:03:04.063Z,77.98
2019-02-21T06:06:09.742Z,77.60
2019-02-21T06:08:51.271Z,77.61
2019-02-21T06:11:48.055Z,77.27
2019-02-21T06:14:35.509Z,77.63
2019-02-21T06:17:47.621Z,77.82
2019-02-21T06:20:29.505Z,77.52
2019-02-21T06:23:29.083Z,77.72
2019-02-21T06:26:29.054Z,77.73
2019-02-21T06:29:06.780Z,77.92
2019-02-21T06:31:38.615Z,77.72
2019-02-21T06:34:10.178Z,77.84
2019-02-21T06:36:42.016Z,77.84
2019-02-21T06:39:13.860Z,77.95
2019-02-21T06:41:45.852Z,77.80
2019-02-21T06:44:17.856Z,77.63
2019-02-21T06:46:49.715Z,78.00
2019-02-21T06:49:31.822Z,77.84
2019-02-21T06:51:54.803Z,78.06
2019-02-21T06:54:26.639Z,78.02
2019-02-21T06:56:58.660Z,77.77
2019-02-21T06:59:30.499Z,77.72
2019-02-21T07:02:02.488Z,77.73
2019-02-21T07:04:34.324Z,77.88
2019-02-21T07:07:06.186Z,77.87
2019-02-21T07:09:38.024Z,77.87
2019-02-21T07:12:10.676Z,77.67
2019-02-21T07:14:45.848Z,77.89
2019-02-21T07:17:17.736Z,78.02
2019-02-21T07:19:49.563Z,77.54
2019-02-21T07:22:22.319Z,77.16
2019-02-21T07:24:58.664Z,77.44
2019-02-21T07:27:30.503Z,77.67
2019-02-21T07:30:02.408Z,77.94
2019-02-21T07:32:44.435Z,77.61
2019-02-21T07:35:16.266Z,77.48
2019-02-21T07:37:47.853Z,77.36
2019-02-21T07:40:20.326Z,77.23
2019-02-21T07:42:52.407Z,76.95
2019-02-21T07:45:23.978Z,76.85
2019-02-21T07:47:55.790Z,77.22
2019-02-21T07:50:27.675Z,77.48
2019-02-21T07:53:02.458Z,76.94
2019-02-21T07:55:32.522Z,75.28
2019-02-21T07:58:04.314Z,74.97
2019-02-21T08:00:36.006Z,74.04
2019-02-21T08:03:09.194Z,73.29
2019-02-21T08:05:40.947Z,71.91
2019-02-21T08:08:12.532Z,73.04
2019-02-21T08:10:44.283Z,71.93
2019-02-21T08:13:15.833Z,71.45
2019-02-21T08:15:47.626Z,70.79
2019-02-21T08:18:19.194Z,71.54
2019-02-21T08:20:50.824Z,72.04
2019-02-21T08:23:23.845Z,71.77
2019-02-21T08:25:55.496Z,71.33
2019-02-21T08:28:27.060Z,71.56
2019-02-21T08:30:58.635Z,71.14
2019-02-21T08:33:33.329Z,70.76
2019-02-21T08:36:04.943Z,70.81
2019-02-21T08:38:36.463Z,71.40
2019-02-21T08:41:08.250Z,71.99
2019-02-21T08:43:39.807Z,71.87
2019-02-21T08:46:13.207Z,72.43
2019-02-21T08:48:47.638Z,72.69
2019-02-21T08:51:18.484Z,72.64
2019-02-21T08:53:52.432Z,73.20
2019-02-21T08:56:23.990Z,72.69
2019-02-21T08:58:55.572Z,72.21
2019-02-21T09:01:27.331Z,71.40
2019-02-21T09:04:10.069Z,71.70
2019-02-21T09:06:36.966Z,71.48
2019-02-21T09:09:08.931Z,69.29
2019-02-21T09:11:42.094Z,69.53
2019-02-21T09:14:13.666Z,69.25
2019-02-21T09:16:45.218Z,68.89
2019-02-21T09:19:16.859Z,69.06
2019-02-21T09:21:50.188Z,68.35
2019-02-21T09:24:37.861Z,69.28
2019-02-21T09:26:57.354Z,67.84
2019-02-21T09:29:28.344Z,68.69
2019-02-21T09:31:59.921Z,69.32
2019-02-21T09:34:31.493Z,69.29
2019-02-21T09:37:05.394Z,69.06
2019-02-21T09:39:37.847Z,68.18
2019-02-21T09:42:11.928Z,67.74
2019-02-21T09:44:44.594Z,68.54
2019-02-21T09:47:16.284Z,68.60
2019-02-21T09:49:49.444Z,68.46
2019-02-21T09:52:20.927Z,68.01
2019-02-21T09:54:52.553Z,66.17
2019-02-21T09:57:26.777Z,65.95
2019-02-21T09:59:58.378Z,65.67
2019-02-21T10:02:29.985Z,65.86
2019-02-21T10:05:04.897Z,65.38
2019-02-21T10:07:37.068Z,64.98
2019-02-21T10:10:11.663Z,65.18
2019-02-21T10:12:43.538Z,64.42
2019-02-21T10:15:15.536Z,63.41
2019-02-21T10:17:47.140Z,63.15
2019-02-21T10:20:20.209Z,63.42
2019-02-21T10:22:51.781Z,63.56
2019-02-21T10:25:25.977Z,63.50
2019-02-21T10:27:59.054Z,63.62
2019-02-21T10:30:30.937Z,63.22
2019-02-21T10:33:02.474Z,62.76
2019-02-21T10:35:35.144Z,63.03
2019-02-21T10:38:06.697Z,63.67
2019-02-21T10:40:38.284Z,63.40
2019-02-21T10:43:09.893Z,62.59
2019-02-21T10:45:47.703Z,62.41
2019-02-21T10:48:14.755Z,62.26
2019-02-21T10:50:46.385Z,62.07
2019-02-21T10:53:17.990Z,62.56
2019-02-21T10:55:49.555Z,62.18
2019-02-21T10:58:21.136Z,61.66
2019-02-21T11:00:52.697Z,61.62
2019-02-21T11:03:24.299Z,61.23
2019-02-21T11:05:55.861Z,61.77
2019-02-21T11:08:27.436Z,61.47
2019-02-21T11:10:59.018Z,62.74
2019-02-21T11:13:30.611Z,62.36
2019-02-21T11:16:02.171Z,61.44
2019-02-21T11:18:35.434Z,61.73
2019-02-21T11:21:08.038Z,60.12
2019-02-21T11:23:39.607Z,60.82
2019-02-21T11:26:11.210Z,60.34
2019-02-21T11:28:42.775Z,60.05
2019-02-21T11:31:14.367Z,59.85
2019-02-21T11:33:45.912Z,59.34
2019-02-21T11:36:17.502Z,59.53
2019-02-21T11:38:49.129Z,59.57
2019-02-21T11:41:20.773Z,59.34
2019-02-21T11:43:52.352Z,59.39
2019-02-21T11:46:23.961Z,59.15
2019-02-21T11:48:55.559Z,59.99
2019-02-21T11:51:27.134Z,59.42
2019-02-21T11:54:00.121Z,58.71
2019-02-21T11:56:33.191Z,58.39
2019-02-21T11:59:04.789Z,58.55
2019-02-21T12:01:39.982Z,57.44
2019-02-21T12:04:11.546Z,58.09
2019-02-21T12:06:43.150Z,57.57
2019-02-21T12:09:14.817Z,57.80
2019-02-21T12:11:46.478Z,58.00
2019-02-21T12:14:18.143Z,57.80
2019-02-21T12:16:49.745Z,58.57
2019-02-21T12:19:21.396Z,58.00
2019-02-21T12:21:59.056Z,58.04
2019-02-21T12:24:26.292Z,58.24
2019-02-21T12:26:59.698Z,58.01
2019-02-21T12:29:31.289Z,57.89
2019-02-21T12:32:03.852Z,57.50
2019-02-21T12:34:35.707Z,58.07
2019-02-21T12:37:07.278Z,58.11
2019-02-21T12:39:38.901Z,57.86
2019-02-21T12:42:10.527Z,57.98
2019-02-21T12:44:42.072Z,57.41
2019-02-21T12:47:13.659Z,58.05
2019-02-21T12:49:45.246Z,57.10
2019-02-21T12:52:16.827Z,57.58
2019-02-21T12:54:51.829Z,57.39
2019-02-21T12:57:23.635Z,57.61
2019-02-21T12:59:55.203Z,58.64
2019-02-21T13:02:29.746Z,58.45
2019-02-21T13:05:01.308Z,58.18
2019-02-21T13:07:33.184Z,58.54
2019-02-21T13:10:07.446Z,58.51
2019-02-21T13:12:39.058Z,58.86
2019-02-21T13:15:12.543Z,58.49
2019-02-21T13:17:44.162Z,58.80
2019-02-21T13:20:16.169Z,58.81
2019-02-21T13:22:47.831Z,58.56
2019-02-21T13:25:19.564Z,58.73
2019-02-21T13:27:51.165Z,58.56
2019-02-21T13:30:22.839Z,58.59
2019-02-21T13:32:54.405Z,58.51
2019-02-21T13:35:25.982Z,58.71
2019-02-21T13:37:57.576Z,58.25
2019-02-21T13:40:29.176Z,58.69
2019-02-21T13:43:00.792Z,59.05
2019-02-21T13:45:32.368Z,58.27
2019-02-21T13:48:03.994Z,58.46
2019-02-21T13:50:35.597Z,58.57
2019-02-21T13:53:07.224Z,58.61
2019-02-21T13:55:39.160Z,58.75
2019-02-21T13:58:10.753Z,58.25
2019-02-21T14:00:42.361Z,58.48
2019-02-21T14:03:14.017Z,58.63
2019-02-21T14:05:45.566Z,58.68
2019-02-21T14:08:17.159Z,58.57
2019-02-21T14:10:51.918Z,58.70
2019-02-21T14:13:23.547Z,59.02
2019-02-21T14:15:56.493Z,58.70
2019-02-21T14:18:28.170Z,59.05
2019-02-21T14:20:59.753Z,59.34
2019-02-21T14:23:31.335Z,59.25
2019-02-21T14:26:02.927Z,59.18
2019-02-21T14:28:37.305Z,59.49
2019-02-21T14:31:08.144Z,59.35
2019-02-21T14:33:39.815Z,58.98
2019-02-21T14:36:16.012Z,58.50
2019-02-21T14:38:44.698Z,58.22
2019-02-21T14:41:16.394Z,58.18
2019-02-21T14:43:47.995Z,58.35
2019-02-21T14:46:19.582Z,58.43
2019-02-21T14:48:51.294Z,59.01
2019-02-21T14:51:22.862Z,59.17
2019-02-21T14:53:54.447Z,58.77
2019-02-21T14:56:26.069Z,58.97
2019-02-21T14:59:04.661Z,58.86
2019-02-21T15:01:36.221Z,58.62
2019-02-21T15:04:07.821Z,58.19
2019-02-21T15:06:44.770Z,58.37
2019-02-21T15:09:16.362Z,57.94
2019-02-21T15:11:47.945Z,58.31
2019-02-21T15:14:19.562Z,58.39
2019-02-21T15:16:54.310Z,58.66
2019-02-21T15:19:26.951Z,59.14
2019-02-21T15:22:17.595Z,59.23
2019-02-21T15:24:51.005Z,59.44
2019-02-21T15:27:23.549Z,59.59
2019-02-21T15:29:57.382Z,59.57
2019-02-21T15:32:28.490Z,59.52
2019-02-21T15:35:00.314Z,59.32
2019-02-21T15:37:33.598Z,58.95
2019-02-21T15:40:05.691Z,59.19
2019-02-21T15:42:39.308Z,59.45
2019-02-21T15:45:22.384Z,59.41
2019-02-21T15:47:47.545Z,59.70
2019-02-21T15:50:20.150Z,59.94
2019-02-21T15:52:52.073Z,59.99
2019-02-21T15:55:23.626Z,60.43
2019-02-21T15:58:03.845Z,60.35
2019-02-21T16:00:31.311Z,60.63
2019-02-21T16:03:05.733Z,60.68
2019-02-21T16:05:37.307Z,60.90
2019-02-21T16:08:08.911Z,60.97
2019-02-21T16:10:40.502Z,60.99
2019-02-21T16:13:12.258Z,61.16
2019-02-21T16:15:43.892Z,61.14
2019-02-21T16:18:15.505Z,61.27
2019-02-21T16:20:47.120Z,61.79
2019-02-21T16:23:22.104Z,61.91
2019-02-21T16:25:53.730Z,61.99
2019-02-21T16:28:25.343Z,62.32
2019-02-21T16:30:56.949Z,62.43
2019-02-21T16:33:28.603Z,62.59
2019-02-21T16:36:01.432Z,62.49
2019-02-21T16:38:35.961Z,62.55
2019-02-21T16:41:07.548Z,62.68
2019-02-21T16:43:39.180Z,62.85
2019-02-21T16:46:10.747Z,62.85
2019-02-21T16:48:42.361Z,63.11
2019-02-21T16:51:13.954Z,63.32
2019-02-21T16:53:45.597Z,63.45
2019-02-21T16:56:17.180Z,63.84
2019-02-21T16:58:48.813Z,63.88
2019-02-21T17:01:20.399Z,64.04
2019-02-21T17:03:52.011Z,63.88
2019-02-21T17:06:23.632Z,64.23
2019-02-21T17:08:55.240Z,64.32
2019-02-21T17:11:26.826Z,64.68
2019-02-21T17:13:59.522Z,65.01
2019-02-21T17:16:31.102Z,65.06
2019-02-21T17:19:02.708Z,65.33
2019-02-21T17:21:34.291Z,65.66
2019-02-21T17:24:07.237Z,66.09
2019-02-21T17:26:39.120Z,66.26
2019-02-21T17:29:13.532Z,65.29
2019-02-21T17:31:46.287Z,65.16
2019-02-21T17:34:17.901Z,65.57
2019-02-21T17:36:49.493Z,66.06
2019-02-21T17:39:21.119Z,65.99
2019-02-21T17:41:52.707Z,66.03
2019-02-21T17:44:24.379Z,66.34
2019-02-21T17:46:56.195Z,66.87
2019-02-21T17:49:27.779Z,67.31
2019-02-21T17:51:59.418Z,67.76
2019-02-21T17:54:31.005Z,67.71
2019-02-21T17:57:02.596Z,67.64
2019-02-21T17:59:34.851Z,66.88
2019-02-21T18:02:06.438Z,67.11
2019-02-21T18:04:38.025Z,67.84
2019-02-21T18:07:09.593Z,68.23
2019-02-21T18:09:42.938Z,68.11
2019-02-21T18:12:14.639Z,68.00
2019-02-21T18:14:46.279Z,67.69
2019-02-21T18:17:20.016Z,68.08
2019-02-21T18:19:51.646Z,68.26
2019-02-21T18:22:23.260Z,68.46
2019-02-21T18:24:54.918Z,68.75
2019-02-21T18:27:26.524Z,68.58
2019-02-21T18:29:58.125Z,68.67
2019-02-21T18:32:30.019Z,68.90
2019-02-21T18:35:01.612Z,69.07
2019-02-21T18:37:33.395Z,69.13
2019-02-21T18:40:16.917Z,69.18
2019-02-21T18:42:40.553Z,69.21
2019-02-21T18:45:12.161Z,69.50
2019-02-21T18:47:50.672Z,69.33
2019-02-21T18:50:23.632Z,69.30
2019-02-21T18:52:55.234Z,69.11
2019-02-21T18:55:26.867Z,69.20
2019-02-21T18:57:58.547Z,69.61
2019-02-21T19:00:41.985Z,69.78
2019-02-21T19:03:16.586Z,69.85
2019-02-21T19:05:48.193Z,70.17
2019-02-21T19:08:19.804Z,69.69
2019-02-21T19:10:51.437Z,69.90
2019-02-21T19:13:24.098Z,69.89
2019-02-21T19:15:55.704Z,69.95
2019-02-21T19:18:27.430Z,70.20
2019-02-21T19:20:59.109Z,70.34
2019-02-21T19:23:30.708Z,70.40
2019-02-21T19:26:02.347Z,70.47
2019-02-21T19:28:34.025Z,70.47
2019-02-21T19:31:14.990Z,70.62
2019-02-21T19:33:46.602Z,70.86
2019-02-21T19:36:18.259Z,70.77
2019-02-21T19:38:49.879Z,70.94
2019-02-21T19:41:21.512Z,71.09
2019-02-21T19:43:53.115Z,71.09
2019-02-21T19:46:27.814Z,71.21
2019-02-21T19:48:59.416Z,71.28
2019-02-21T19:51:31.175Z,71.23
2019-02-21T19:54:05.073Z,71.17
2019-02-21T19:56:36.677Z,71.39
2019-02-21T19:59:08.295Z,71.66
2019-02-21T20:01:40.305Z,71.46
2019-02-21T20:04:14.305Z,71.70
2019-02-21T20:06:45.939Z,71.99
2019-02-21T20:09:18.181Z,71.87
2019-02-21T20:11:49.834Z,71.98
2019-02-21T20:14:21.584Z,72.03
2019-02-21T20:16:53.199Z,72.20
2019-02-21T20:19:26.010Z,72.25
2019-02-21T20:21:57.749Z,72.35
2019-02-21T20:24:29.366Z,72.38
2019-02-21T20:27:00.995Z,72.46
2019-02-21T20:29:32.683Z,72.46
2019-02-21T20:32:04.356Z,72.63
2019-02-21T20:34:37.104Z,72.75
2019-02-21T20:37:08.786Z,72.73
2019-02-21T20:39:40.376Z,72.78
2019-02-21T20:42:16.752Z,73.07
2019-02-21T20:44:48.441Z,73.16
2019-02-21T20:47:21.349Z,73.34
2019-02-21T20:49:52.963Z,73.43
2019-02-21T20:52:24.560Z,73.51
2019-02-21T20:54:56.585Z,73.63
2019-02-21T20:57:28.265Z,73.70
2019-02-21T20:59:59.888Z,73.90
2019-02-21T21:02:31.596Z,74.02
2019-02-21T21:05:03.293Z,74.24
2019-02-21T21:07:35.186Z,74.47
2019-02-21T21:10:09.278Z,74.68
2019-02-21T21:12:40.894Z,74.69
2019-02-21T21:15:15.220Z,74.79
2019-02-21T21:17:48.161Z,74.88
2019-02-21T21:20:19.813Z,75.09
2019-02-21T21:22:51.417Z,74.90
2019-02-21T21:25:22.996Z,75.14
2019-02-21T21:27:54.703Z,75.25
2019-02-21T21:30:26.312Z,74.79
2019-02-21T21:32:57.978Z,75.07
2019-02-21T21:35:29.607Z,75.27
2019-02-21T21:38:01.203Z,75.07
2019-02-21T21:40:32.854Z,75.33
2019-02-21T21:43:06.129Z,75.49
2019-02-21T21:45:37.742Z,75.66
2019-02-21T21:48:09.363Z,75.67
2019-02-21T21:50:40.942Z,75.52
2019-02-21T21:53:15.802Z,75.77
2019-02-21T21:55:45.904Z,75.39
2019-02-21T21:58:17.508Z,75.62
2019-02-21T22:00:49.103Z,75.81
2019-02-21T22:03:20.713Z,75.90
2019-02-21T22:05:52.356Z,75.54
2019-02-21T22:08:23.963Z,75.43
2019-02-21T22:10:55.584Z,75.58
2019-02-21T22:13:27.288Z,75.72
2019-02-21T22:15:58.870Z,75.56
2019-02-21T22:18:30.488Z,75.70
2019-02-21T22:21:02.099Z,75.55
2019-02-21T22:23:33.697Z,75.68
2019-02-21T22:26:07.172Z,75.82
2019-02-21T22:28:38.790Z,75.91
2019-02-21T22:31:11.880Z,75.89
2019-02-21T22:33:43.462Z,75.81
2019-02-21T22:36:15.300Z,75.70
2019-02-21T22:38:46.883Z,75.98
2019-02-21T22:41:18.532Z,75.94
2019-02-21T22:43:50.136Z,75.89
2019-02-21T22:46:21.760Z,75.82
2019-02-21T22:48:53.422Z,75.90
2019-02-21T22:51:27.885Z,75.94
2019-02-21T22:53:59.556Z,75.80
2019-02-21T22:56:31.166Z,76.11
2019-02-21T22:59:04.145Z,75.83
2019-02-21T23:01:47.548Z,75.87
2019-02-21T23:04:41.004Z,76.13
2019-02-21T23:08:14.499Z,76.20
2019-02-21T23:10:46.293Z,76.17
2019-02-21T23:13:18.033Z,76.23
2019-02-21T23:15:50.094Z,76.53
2019-02-21T23:18:21.691Z,76.45
2019-02-21T23:20:53.255Z,76.29
2019-02-21T23:23:24.807Z,76.29
2019-02-21T23:25:56.451Z,76.26
2019-02-21T23:28:28.025Z,76.52
2019-02-21T23:31:00.978Z,76.52
2019-02-21T23:33:34.478Z,76.74
2019-02-21T23:36:06.051Z,76.56
2019-02-21T23:38:37.617Z,76.53
2019-02-21T23:41:11.934Z,76.73
2019-02-21T23:43:43.516Z,77.17
2019-02-21T23:46:17.818Z,77.49
2019-02-21T23:48:52.005Z,77.71
2019-02-21T23:51:23.555Z,77.78
2019-02-21T23:54:02.786Z,77.38
2019-02-21T23:56:28.388Z,77.28
2019-02-21T23:58:59.962Z,77.17
